sensor_id;sensor_type;location;lat;lon;timestamp;P1;durP1;ratioP1;P2;durP2;ratioP2
52047;SDS011;46904;49.438;8.752;2023-02-12T00:00:49;10.23;;;5.60;;
52047;SDS011;46904;49.438;8.752;2023-02-12T00:03:15;8.32;;;5.90;;
52047;SDS011;46904;49.438;8.752;2023-02-12T00:05:41;8.13;;;5.13;;
52047;SDS011;46904;49.438;8.752;2023-02-12T00:08:07;9.88;;;6.47;;
52047;SDS011;46904;49.438;8.752;2023-02-12T00:10:33;7.97;;;4.82;;
52047;SDS011;46904;49.438;8.752;2023-02-12T00:12:59;7.50;;;5.30;;
52047;SDS011;46904;49.438;8.752;2023-02-12T00:15:25;8.60;;;5.35;;
52047;SDS011;46904;49.438;8.752;2023-02-12T00:17:51;9.40;;;5.38;;
52047;SDS011;46904;49.438;8.752;2023-02-12T00:20:27;7.95;;;5.70;;
52047;SDS011;46904;49.438;8.752;2023-02-12T00:22:52;8.57;;;5.82;;
52047;SDS011;46904;49.438;8.752;2023-02-12T00:25:18;8.38;;;6.30;;
52047;SDS011;46904;49.438;8.752;2023-02-12T00:27:44;10.07;;;6.38;;
52047;SDS011;46904;49.438;8.752;2023-02-12T00:30:10;8.98;;;6.00;;
52047;SDS011;46904;49.438;8.752;2023-02-12T00:32:36;11.27;;;7.13;;
52047;SDS011;46904;49.438;8.752;2023-02-12T00:35:02;8.68;;;5.65;;
52047;SDS011;46904;49.438;8.752;2023-02-12T00:37:27;9.00;;;6.05;;
52047;SDS011;46904;49.438;8.752;2023-02-12T00:39:56;7.70;;;5.35;;
52047;SDS011;46904;49.438;8.752;2023-02-12T00:42:22;8.30;;;5.00;;
52047;SDS011;46904;49.438;8.752;2023-02-12T00:44:48;7.10;;;4.63;;
52047;SDS011;46904;49.438;8.752;2023-02-12T00:47:13;8.15;;;5.30;;
52047;SDS011;46904;49.438;8.752;2023-02-12T00:49:48;9.23;;;5.30;;
52047;SDS011;46904;49.438;8.752;2023-02-12T00:52:14;7.43;;;5.05;;
52047;SDS011;46904;49.438;8.752;2023-02-12T00:54:40;7.07;;;4.93;;
52047;SDS011;46904;49.438;8.752;2023-02-12T00:57:08;9.32;;;6.13;;
52047;SDS011;46904;49.438;8.752;2023-02-12T00:59:34;10.23;;;6.30;;
52047;SDS011;46904;49.438;8.752;2023-02-12T01:02:00;7.10;;;5.20;;
52047;SDS011;46904;49.438;8.752;2023-02-12T01:04:25;10.65;;;6.60;;
52047;SDS011;46904;49.438;8.752;2023-02-12T01:06:58;9.82;;;6.50;;
52047;SDS011;46904;49.438;8.752;2023-02-12T01:09:24;8.13;;;5.47;;
52047;SDS011;46904;49.438;8.752;2023-02-12T01:11:50;9.07;;;6.47;;
52047;SDS011;46904;49.438;8.752;2023-02-12T01:14:15;7.93;;;5.63;;
52047;SDS011;46904;49.438;8.752;2023-02-12T01:16:41;8.15;;;5.53;;
52047;SDS011;46904;49.438;8.752;2023-02-12T01:19:06;9.90;;;5.75;;
52047;SDS011;46904;49.438;8.752;2023-02-12T01:21:33;8.73;;;6.13;;
52047;SDS011;46904;49.438;8.752;2023-02-12T01:24:00;11.57;;;6.22;;
52047;SDS011;46904;49.438;8.752;2023-02-12T01:26:26;8.90;;;5.88;;
52047;SDS011;46904;49.438;8.752;2023-02-12T01:28:54;7.30;;;5.13;;
52047;SDS011;46904;49.438;8.752;2023-02-12T01:31:22;7.38;;;4.85;;
52047;SDS011;46904;49.438;8.752;2023-02-12T01:33:50;6.93;;;5.10;;
52047;SDS011;46904;49.438;8.752;2023-02-12T01:36:16;9.73;;;5.43;;
52047;SDS011;46904;49.438;8.752;2023-02-12T01:38:42;8.25;;;5.47;;
52047;SDS011;46904;49.438;8.752;2023-02-12T01:41:10;9.27;;;5.97;;
52047;SDS011;46904;49.438;8.752;2023-02-12T01:43:36;8.93;;;5.93;;
52047;SDS011;46904;49.438;8.752;2023-02-12T01:46:02;8.55;;;6.05;;
52047;SDS011;46904;49.438;8.752;2023-02-12T01:48:29;8.68;;;6.07;;
52047;SDS011;46904;49.438;8.752;2023-02-12T01:50:55;9.88;;;6.55;;
52047;SDS011;46904;49.438;8.752;2023-02-12T01:53:22;13.32;;;7.57;;
52047;SDS011;46904;49.438;8.752;2023-02-12T01:55:50;11.15;;;7.63;;
52047;SDS011;46904;49.438;8.752;2023-02-12T01:58:17;10.02;;;7.03;;
52047;SDS011;46904;49.438;8.752;2023-02-12T02:00:43;11.18;;;7.28;;
52047;SDS011;46904;49.438;8.752;2023-02-12T02:03:09;10.90;;;6.93;;
52047;SDS011;46904;49.438;8.752;2023-02-12T02:08:10;10.27;;;6.10;;
52047;SDS011;46904;49.438;8.752;2023-02-12T02:10:36;11.82;;;7.63;;
52047;SDS011;46904;49.438;8.752;2023-02-12T02:13:02;10.35;;;7.60;;
52047;SDS011;46904;49.438;8.752;2023-02-12T02:15:28;11.07;;;7.15;;
52047;SDS011;46904;49.438;8.752;2023-02-12T02:17:57;12.00;;;7.57;;
52047;SDS011;46904;49.438;8.752;2023-02-12T02:30:49;11.77;;;6.93;;
52047;SDS011;46904;49.438;8.752;2023-02-12T02:33:24;10.52;;;7.00;;
52047;SDS011;46904;49.438;8.752;2023-02-12T02:36:04;11.88;;;7.63;;
52047;SDS011;46904;49.438;8.752;2023-02-12T02:38:39;11.93;;;7.43;;
52047;SDS011;46904;49.438;8.752;2023-02-12T02:43:39;9.70;;;7.05;;
52047;SDS011;46904;49.438;8.752;2023-02-12T02:46:11;10.25;;;7.45;;
52047;SDS011;46904;49.438;8.752;2023-02-12T02:48:43;8.82;;;6.55;;
52047;SDS011;46904;49.438;8.752;2023-02-12T02:51:12;9.48;;;6.57;;
52047;SDS011;46904;49.438;8.752;2023-02-12T02:53:41;10.82;;;6.82;;
52047;SDS011;46904;49.438;8.752;2023-02-12T02:56:10;14.07;;;8.25;;
52047;SDS011;46904;49.438;8.752;2023-02-12T02:58:44;13.65;;;8.55;;
52047;SDS011;46904;49.438;8.752;2023-02-12T03:01:15;13.48;;;8.70;;
52047;SDS011;46904;49.438;8.752;2023-02-12T03:03:47;14.98;;;8.23;;
52047;SDS011;46904;49.438;8.752;2023-02-12T03:06:17;12.45;;;8.60;;
52047;SDS011;46904;49.438;8.752;2023-02-12T03:08:49;12.55;;;7.70;;
52047;SDS011;46904;49.438;8.752;2023-02-12T03:11:18;12.80;;;7.90;;
52047;SDS011;46904;49.438;8.752;2023-02-12T03:16:30;12.75;;;7.15;;
52047;SDS011;46904;49.438;8.752;2023-02-12T03:19:00;11.80;;;8.27;;
52047;SDS011;46904;49.438;8.752;2023-02-12T03:21:32;13.52;;;8.45;;
52047;SDS011;46904;49.438;8.752;2023-02-12T03:26:27;15.90;;;9.43;;
52047;SDS011;46904;49.438;8.752;2023-02-12T03:28:55;15.52;;;9.30;;
52047;SDS011;46904;49.438;8.752;2023-02-12T03:34:26;15.18;;;9.30;;
52047;SDS011;46904;49.438;8.752;2023-02-12T03:36:50;13.98;;;8.52;;
52047;SDS011;46904;49.438;8.752;2023-02-12T03:44:36;14.75;;;9.82;;
52047;SDS011;46904;49.438;8.752;2023-02-12T03:49:45;14.20;;;9.63;;
52047;SDS011;46904;49.438;8.752;2023-02-12T03:52:13;13.70;;;9.10;;
52047;SDS011;46904;49.438;8.752;2023-02-12T03:54:38;16.38;;;9.25;;
52047;SDS011;46904;49.438;8.752;2023-02-12T03:57:05;13.60;;;8.23;;
52047;SDS011;46904;49.438;8.752;2023-02-12T03:59:33;9.52;;;7.15;;
52047;SDS011;46904;49.438;8.752;2023-02-12T04:01:59;14.63;;;9.57;;
52047;SDS011;46904;49.438;8.752;2023-02-12T04:04:25;14.18;;;8.48;;
52047;SDS011;46904;49.438;8.752;2023-02-12T04:06:51;15.20;;;9.57;;
52047;SDS011;46904;49.438;8.752;2023-02-12T04:09:17;13.80;;;8.27;;
52047;SDS011;46904;49.438;8.752;2023-02-12T04:16:50;12.77;;;8.63;;
52047;SDS011;46904;49.438;8.752;2023-02-12T04:19:19;12.43;;;8.48;;
52047;SDS011;46904;49.438;8.752;2023-02-12T04:21:52;13.65;;;9.02;;
52047;SDS011;46904;49.438;8.752;2023-02-12T04:24:27;13.57;;;9.48;;
52047;SDS011;46904;49.438;8.752;2023-02-12T04:29:32;14.82;;;9.15;;
52047;SDS011;46904;49.438;8.752;2023-02-12T04:32:14;14.32;;;8.25;;
52047;SDS011;46904;49.438;8.752;2023-02-12T04:37:17;12.68;;;8.77;;
52047;SDS011;46904;49.438;8.752;2023-02-12T04:39:43;13.25;;;8.15;;
52047;SDS011;46904;49.438;8.752;2023-02-12T04:42:10;12.63;;;8.27;;
52047;SDS011;46904;49.438;8.752;2023-02-12T04:44:37;14.38;;;8.48;;
52047;SDS011;46904;49.438;8.752;2023-02-12T04:47:03;12.18;;;8.25;;
52047;SDS011;46904;49.438;8.752;2023-02-12T04:49:28;11.30;;;7.63;;
52047;SDS011;46904;49.438;8.752;2023-02-12T04:51:54;11.65;;;7.63;;
52047;SDS011;46904;49.438;8.752;2023-02-12T04:54:20;11.88;;;7.05;;
52047;SDS011;46904;49.438;8.752;2023-02-12T04:56:46;9.90;;;6.68;;
52047;SDS011;46904;49.438;8.752;2023-02-12T04:59:12;11.23;;;6.63;;
52047;SDS011;46904;49.438;8.752;2023-02-12T05:01:38;13.55;;;7.35;;
52047;SDS011;46904;49.438;8.752;2023-02-12T05:04:05;13.45;;;7.95;;
52047;SDS011;46904;49.438;8.752;2023-02-12T05:06:33;11.55;;;7.53;;
52047;SDS011;46904;49.438;8.752;2023-02-12T05:08:59;10.52;;;6.50;;
52047;SDS011;46904;49.438;8.752;2023-02-12T05:11:25;11.82;;;7.28;;
52047;SDS011;46904;49.438;8.752;2023-02-12T05:13:51;12.27;;;6.63;;
52047;SDS011;46904;49.438;8.752;2023-02-12T05:16:17;10.15;;;6.75;;
52047;SDS011;46904;49.438;8.752;2023-02-12T05:18:43;10.73;;;6.90;;
52047;SDS011;46904;49.438;8.752;2023-02-12T05:21:09;10.40;;;6.65;;
52047;SDS011;46904;49.438;8.752;2023-02-12T05:23:35;11.13;;;6.88;;
52047;SDS011;46904;49.438;8.752;2023-02-12T05:26:02;11.32;;;7.43;;
52047;SDS011;46904;49.438;8.752;2023-02-12T05:28:28;10.60;;;6.72;;
52047;SDS011;46904;49.438;8.752;2023-02-12T05:30:54;13.15;;;7.05;;
52047;SDS011;46904;49.438;8.752;2023-02-12T05:33:20;9.55;;;7.07;;
52047;SDS011;46904;49.438;8.752;2023-02-12T05:35:45;10.05;;;6.93;;
52047;SDS011;46904;49.438;8.752;2023-02-12T05:38:11;10.20;;;6.53;;
52047;SDS011;46904;49.438;8.752;2023-02-12T05:40:36;10.65;;;5.82;;
52047;SDS011;46904;49.438;8.752;2023-02-12T05:43:05;10.73;;;6.10;;
52047;SDS011;46904;49.438;8.752;2023-02-12T05:45:31;9.80;;;5.35;;
52047;SDS011;46904;49.438;8.752;2023-02-12T05:47:57;9.70;;;5.63;;
52047;SDS011;46904;49.438;8.752;2023-02-12T05:50:23;7.65;;;5.32;;
52047;SDS011;46904;49.438;8.752;2023-02-12T05:52:49;8.63;;;5.03;;
52047;SDS011;46904;49.438;8.752;2023-02-12T05:55:17;9.32;;;5.53;;
52047;SDS011;46904;49.438;8.752;2023-02-12T05:57:42;9.52;;;5.43;;
52047;SDS011;46904;49.438;8.752;2023-02-12T06:00:08;11.50;;;5.45;;
52047;SDS011;46904;49.438;8.752;2023-02-12T06:02:44;9.93;;;5.57;;
52047;SDS011;46904;49.438;8.752;2023-02-12T06:05:10;13.38;;;6.35;;
52047;SDS011;46904;49.438;8.752;2023-02-12T06:07:36;12.95;;;6.53;;
52047;SDS011;46904;49.438;8.752;2023-02-12T06:10:01;12.32;;;6.43;;
52047;SDS011;46904;49.438;8.752;2023-02-12T06:12:27;11.07;;;6.07;;
52047;SDS011;46904;49.438;8.752;2023-02-12T06:14:53;14.82;;;7.85;;
52047;SDS011;46904;49.438;8.752;2023-02-12T06:17:18;16.38;;;7.68;;
52047;SDS011;46904;49.438;8.752;2023-02-12T06:19:44;13.90;;;7.53;;
52047;SDS011;46904;49.438;8.752;2023-02-12T06:22:10;14.75;;;7.72;;
52047;SDS011;46904;49.438;8.752;2023-02-12T06:24:36;13.25;;;8.07;;
52047;SDS011;46904;49.438;8.752;2023-02-12T06:27:02;12.55;;;7.20;;
52047;SDS011;46904;49.438;8.752;2023-02-12T06:29:28;16.98;;;8.85;;
52047;SDS011;46904;49.438;8.752;2023-02-12T06:34:40;16.60;;;7.60;;
52047;SDS011;46904;49.438;8.752;2023-02-12T06:37:08;14.13;;;8.05;;
52047;SDS011;46904;49.438;8.752;2023-02-12T06:39:37;16.60;;;8.73;;
52047;SDS011;46904;49.438;8.752;2023-02-12T06:42:03;16.17;;;8.40;;
52047;SDS011;46904;49.438;8.752;2023-02-12T06:44:29;13.68;;;7.57;;
52047;SDS011;46904;49.438;8.752;2023-02-12T06:46:55;16.70;;;8.25;;
52047;SDS011;46904;49.438;8.752;2023-02-12T06:49:20;16.85;;;8.90;;
52047;SDS011;46904;49.438;8.752;2023-02-12T06:51:46;14.88;;;8.25;;
52047;SDS011;46904;49.438;8.752;2023-02-12T06:54:13;17.40;;;8.55;;
52047;SDS011;46904;49.438;8.752;2023-02-12T06:56:39;19.50;;;9.20;;
52047;SDS011;46904;49.438;8.752;2023-02-12T06:59:04;17.00;;;8.85;;
52047;SDS011;46904;49.438;8.752;2023-02-12T07:01:30;14.15;;;7.40;;
52047;SDS011;46904;49.438;8.752;2023-02-12T07:04:05;17.55;;;8.55;;
52047;SDS011;46904;49.438;8.752;2023-02-12T07:06:32;17.50;;;7.82;;
52047;SDS011;46904;49.438;8.752;2023-02-12T07:08:58;15.60;;;8.10;;
52047;SDS011;46904;49.438;8.752;2023-02-12T07:11:25;15.38;;;7.78;;
52047;SDS011;46904;49.438;8.752;2023-02-12T07:13:51;13.93;;;8.00;;
52047;SDS011;46904;49.438;8.752;2023-02-12T07:16:21;16.65;;;8.20;;
52047;SDS011;46904;49.438;8.752;2023-02-12T07:18:47;15.35;;;8.10;;
52047;SDS011;46904;49.438;8.752;2023-02-12T07:21:14;16.77;;;8.70;;
52047;SDS011;46904;49.438;8.752;2023-02-12T07:23:40;18.55;;;9.48;;
52047;SDS011;46904;49.438;8.752;2023-02-12T07:26:12;15.88;;;7.97;;
52047;SDS011;46904;49.438;8.752;2023-02-12T07:28:39;15.82;;;9.18;;
52047;SDS011;46904;49.438;8.752;2023-02-12T07:31:15;20.33;;;10.30;;
52047;SDS011;46904;49.438;8.752;2023-02-12T07:36:11;20.23;;;10.60;;
52047;SDS011;46904;49.438;8.752;2023-02-12T07:38:38;20.17;;;12.43;;
52047;SDS011;46904;49.438;8.752;2023-02-12T07:43:35;17.95;;;9.52;;
52047;SDS011;46904;49.438;8.752;2023-02-12T07:46:06;18.88;;;9.65;;
52047;SDS011;46904;49.438;8.752;2023-02-12T07:48:33;15.23;;;8.73;;
52047;SDS011;46904;49.438;8.752;2023-02-12T07:51:01;15.15;;;8.40;;
52047;SDS011;46904;49.438;8.752;2023-02-12T07:53:27;14.90;;;7.50;;
52047;SDS011;46904;49.438;8.752;2023-02-12T07:56:03;19.27;;;9.88;;
52047;SDS011;46904;49.438;8.752;2023-02-12T07:58:33;16.92;;;9.00;;
52047;SDS011;46904;49.438;8.752;2023-02-12T08:03:49;15.23;;;9.40;;
52047;SDS011;46904;49.438;8.752;2023-02-12T08:06:24;16.52;;;8.75;;
52047;SDS011;46904;49.438;8.752;2023-02-12T08:08:51;14.13;;;8.18;;
52047;SDS011;46904;49.438;8.752;2023-02-12T08:11:21;14.32;;;8.02;;
52047;SDS011;46904;49.438;8.752;2023-02-12T08:13:46;13.55;;;7.85;;
52047;SDS011;46904;49.438;8.752;2023-02-12T08:16:23;15.63;;;8.85;;
52047;SDS011;46904;49.438;8.752;2023-02-12T08:21:48;13.60;;;8.18;;
52047;SDS011;46904;49.438;8.752;2023-02-12T08:24:15;16.08;;;9.13;;
52047;SDS011;46904;49.438;8.752;2023-02-12T12:59:49;2.10;;;1.70;;
52047;SDS011;46904;49.438;8.752;2023-02-12T13:19:46;1.73;;;1.60;;
52047;SDS011;46904;49.438;8.752;2023-02-12T13:28:03;1.40;;;1.30;;
52047;SDS011;46904;49.438;8.752;2023-02-12T13:33:32;3.45;;;2.10;;
52047;SDS011;46904;49.438;8.752;2023-02-12T13:36:00;3.38;;;1.63;;
52047;SDS011;46904;49.438;8.752;2023-02-12T13:38:31;1.50;;;1.38;;
52047;SDS011;46904;49.438;8.752;2023-02-12T13:41:02;1.60;;;1.37;;
52047;SDS011;46904;49.438;8.752;2023-02-12T13:46:49;1.60;;;1.50;;
52047;SDS011;46904;49.438;8.752;2023-02-12T13:51:52;1.95;;;1.40;;
52047;SDS011;46904;49.438;8.752;2023-02-12T13:54:33;2.42;;;1.80;;
52047;SDS011;46904;49.438;8.752;2023-02-12T13:57:06;1.70;;;1.50;;
52047;SDS011;46904;49.438;8.752;2023-02-12T14:02:43;2.25;;;1.67;;
52047;SDS011;46904;49.438;8.752;2023-02-12T14:07:19;1.98;;;1.30;;
52047;SDS011;46904;49.438;8.752;2023-02-12T14:12:31;1.83;;;1.58;;
52047;SDS011;46904;49.438;8.752;2023-02-12T14:15:07;2.97;;;2.13;;
52047;SDS011;46904;49.438;8.752;2023-02-12T14:25:54;3.40;;;2.75;;
52047;SDS011;46904;49.438;8.752;2023-02-12T14:28:29;4.78;;;3.67;;
52047;SDS011;46904;49.438;8.752;2023-02-12T14:39:08;1.48;;;1.38;;
52047;SDS011;46904;49.438;8.752;2023-02-12T14:47:01;2.53;;;2.05;;
52047;SDS011;46904;49.438;8.752;2023-02-12T14:49:29;3.15;;;2.33;;
52047;SDS011;46904;49.438;8.752;2023-02-12T14:52:05;1.67;;;1.58;;
52047;SDS011;46904;49.438;8.752;2023-02-12T14:54:34;4.30;;;3.00;;
52047;SDS011;46904;49.438;8.752;2023-02-12T14:59:44;1.75;;;1.52;;
52047;SDS011;46904;49.438;8.752;2023-02-12T15:02:17;1.60;;;1.50;;
52047;SDS011;46904;49.438;8.752;2023-02-12T15:04:47;1.92;;;1.48;;
52047;SDS011;46904;49.438;8.752;2023-02-12T15:07:23;2.08;;;1.30;;
52047;SDS011;46904;49.438;8.752;2023-02-12T15:09:56;1.45;;;1.33;;
52047;SDS011;46904;49.438;8.752;2023-02-12T15:12:34;1.30;;;1.20;;
52047;SDS011;46904;49.438;8.752;2023-02-12T15:15:06;2.50;;;2.30;;
52047;SDS011;46904;49.438;8.752;2023-02-12T15:17:36;2.40;;;2.20;;
52047;SDS011;46904;49.438;8.752;2023-02-12T15:22:40;9.32;;;5.50;;
52047;SDS011;46904;49.438;8.752;2023-02-12T15:27:44;2.00;;;1.67;;
52047;SDS011;46904;49.438;8.752;2023-02-12T15:30:18;3.65;;;2.78;;
52047;SDS011;46904;49.438;8.752;2023-02-12T15:32:44;2.08;;;1.88;;
52047;SDS011;46904;49.438;8.752;2023-02-12T15:35:24;2.63;;;2.42;;
52047;SDS011;46904;49.438;8.752;2023-02-12T15:37:50;2.40;;;2.20;;
52047;SDS011;46904;49.438;8.752;2023-02-12T15:40:16;2.60;;;2.22;;
52047;SDS011;46904;49.438;8.752;2023-02-12T15:45:23;9.73;;;7.03;;
52047;SDS011;46904;49.438;8.752;2023-02-12T15:51:00;7.40;;;5.75;;
52047;SDS011;46904;49.438;8.752;2023-02-12T15:53:27;6.22;;;4.60;;
52047;SDS011;46904;49.438;8.752;2023-02-12T15:55:53;7.60;;;5.88;;
52047;SDS011;46904;49.438;8.752;2023-02-12T16:00:44;9.50;;;8.10;;
52047;SDS011;46904;49.438;8.752;2023-02-12T16:03:32;8.63;;;5.60;;
52047;SDS011;46904;49.438;8.752;2023-02-12T16:08:27;5.57;;;4.63;;
52047;SDS011;46904;49.438;8.752;2023-02-12T16:10:53;5.70;;;4.70;;
52047;SDS011;46904;49.438;8.752;2023-02-12T16:13:23;4.70;;;4.28;;
52047;SDS011;46904;49.438;8.752;2023-02-12T16:16:04;5.07;;;4.43;;
52047;SDS011;46904;49.438;8.752;2023-02-12T16:18:30;6.32;;;5.10;;
52047;SDS011;46904;49.438;8.752;2023-02-12T16:21:15;9.38;;;5.28;;
52047;SDS011;46904;49.438;8.752;2023-02-12T16:23:42;4.82;;;4.28;;
52047;SDS011;46904;49.438;8.752;2023-02-12T16:26:08;5.53;;;4.45;;
52047;SDS011;46904;49.438;8.752;2023-02-12T16:28:39;5.43;;;4.90;;
52047;SDS011;46904;49.438;8.752;2023-02-12T16:31:10;5.68;;;5.07;;
52047;SDS011;46904;49.438;8.752;2023-02-12T16:33:41;6.10;;;5.50;;
52047;SDS011;46904;49.438;8.752;2023-02-12T16:36:10;5.30;;;4.80;;
52047;SDS011;46904;49.438;8.752;2023-02-12T16:43:40;9.48;;;7.05;;
52047;SDS011;46904;49.438;8.752;2023-02-12T16:46:06;10.25;;;7.50;;
52047;SDS011;46904;49.438;8.752;2023-02-12T16:48:35;9.98;;;7.03;;
52047;SDS011;46904;49.438;8.752;2023-02-12T16:51:02;7.40;;;5.93;;
52047;SDS011;46904;49.438;8.752;2023-02-12T16:55:56;5.57;;;4.60;;
52047;SDS011;46904;49.438;8.752;2023-02-12T16:58:22;5.60;;;5.03;;
52047;SDS011;46904;49.438;8.752;2023-02-12T17:00:47;7.57;;;5.93;;
52047;SDS011;46904;49.438;8.752;2023-02-12T17:03:14;6.63;;;4.82;;
52047;SDS011;46904;49.438;8.752;2023-02-12T17:05:40;7.22;;;6.53;;
52047;SDS011;46904;49.438;8.752;2023-02-12T17:08:11;7.47;;;5.97;;
52047;SDS011;46904;49.438;8.752;2023-02-12T17:10:37;6.53;;;5.82;;
52047;SDS011;46904;49.438;8.752;2023-02-12T17:13:02;6.38;;;4.95;;
52047;SDS011;46904;49.438;8.752;2023-02-12T17:15:29;10.43;;;5.22;;
52047;SDS011;46904;49.438;8.752;2023-02-12T17:17:56;6.03;;;4.60;;
52047;SDS011;46904;49.438;8.752;2023-02-12T17:20:22;7.85;;;5.38;;
52047;SDS011;46904;49.438;8.752;2023-02-12T17:22:49;6.07;;;5.15;;
52047;SDS011;46904;49.438;8.752;2023-02-12T17:25:17;11.70;;;6.45;;
52047;SDS011;46904;49.438;8.752;2023-02-12T17:27:43;7.03;;;4.45;;
52047;SDS011;46904;49.438;8.752;2023-02-12T17:30:09;6.15;;;4.30;;
52047;SDS011;46904;49.438;8.752;2023-02-12T17:32:38;5.63;;;4.35;;
52047;SDS011;46904;49.438;8.752;2023-02-12T17:35:04;5.95;;;4.10;;
52047;SDS011;46904;49.438;8.752;2023-02-12T17:37:30;5.90;;;4.15;;
52047;SDS011;46904;49.438;8.752;2023-02-12T17:39:55;5.45;;;3.90;;
52047;SDS011;46904;49.438;8.752;2023-02-12T17:42:21;6.47;;;4.82;;
52047;SDS011;46904;49.438;8.752;2023-02-12T17:44:47;7.55;;;4.93;;
52047;SDS011;46904;49.438;8.752;2023-02-12T17:47:12;6.20;;;4.22;;
52047;SDS011;46904;49.438;8.752;2023-02-12T17:49:38;5.55;;;4.55;;
52047;SDS011;46904;49.438;8.752;2023-02-12T17:52:03;4.30;;;3.70;;
52047;SDS011;46904;49.438;8.752;2023-02-12T17:54:29;5.07;;;3.78;;
52047;SDS011;46904;49.438;8.752;2023-02-12T17:56:55;7.15;;;3.67;;
52047;SDS011;46904;49.438;8.752;2023-02-12T17:59:21;5.03;;;3.17;;
52047;SDS011;46904;49.438;8.752;2023-02-12T18:01:46;4.45;;;3.50;;
52047;SDS011;46904;49.438;8.752;2023-02-12T18:04:12;7.43;;;6.10;;
52047;SDS011;46904;49.438;8.752;2023-02-12T18:06:37;9.25;;;7.05;;
52047;SDS011;46904;49.438;8.752;2023-02-12T18:09:03;6.43;;;5.60;;
52047;SDS011;46904;49.438;8.752;2023-02-12T18:11:29;7.28;;;5.40;;
52047;SDS011;46904;49.438;8.752;2023-02-12T18:13:55;8.55;;;6.63;;
52047;SDS011;46904;49.438;8.752;2023-02-12T18:16:21;7.85;;;6.00;;
52047;SDS011;46904;49.438;8.752;2023-02-12T18:18:47;8.38;;;6.47;;
52047;SDS011;46904;49.438;8.752;2023-02-12T18:21:13;10.40;;;5.93;;
52047;SDS011;46904;49.438;8.752;2023-02-12T18:23:39;10.23;;;6.35;;
52047;SDS011;46904;49.438;8.752;2023-02-12T18:26:08;9.85;;;6.50;;
52047;SDS011;46904;49.438;8.752;2023-02-12T18:28:34;11.68;;;6.85;;
52047;SDS011;46904;49.438;8.752;2023-02-12T18:31:00;8.43;;;4.97;;
52047;SDS011;46904;49.438;8.752;2023-02-12T18:33:26;6.45;;;4.90;;
52047;SDS011;46904;49.438;8.752;2023-02-12T18:35:56;8.25;;;6.60;;
52047;SDS011;46904;49.438;8.752;2023-02-12T18:40:46;6.90;;;4.93;;
52047;SDS011;46904;49.438;8.752;2023-02-12T18:43:12;10.70;;;6.85;;
52047;SDS011;46904;49.438;8.752;2023-02-12T18:45:38;13.07;;;8.88;;
52047;SDS011;46904;49.438;8.752;2023-02-12T18:48:04;14.07;;;10.35;;
52047;SDS011;46904;49.438;8.752;2023-02-12T18:50:29;13.98;;;9.40;;
52047;SDS011;46904;49.438;8.752;2023-02-12T18:52:55;14.60;;;8.85;;
52047;SDS011;46904;49.438;8.752;2023-02-12T18:55:20;15.90;;;8.52;;
52047;SDS011;46904;49.438;8.752;2023-02-12T18:57:46;14.70;;;9.32;;
52047;SDS011;46904;49.438;8.752;2023-02-12T19:00:12;11.07;;;7.75;;
52047;SDS011;46904;49.438;8.752;2023-02-12T19:02:43;9.93;;;6.95;;
52047;SDS011;46904;49.438;8.752;2023-02-12T19:05:08;12.35;;;8.10;;
52047;SDS011;46904;49.438;8.752;2023-02-12T19:07:34;10.20;;;5.88;;
52047;SDS011;46904;49.438;8.752;2023-02-12T19:10:00;9.82;;;6.00;;
52047;SDS011;46904;49.438;8.752;2023-02-12T19:12:25;9.73;;;6.32;;
52047;SDS011;46904;49.438;8.752;2023-02-12T19:14:51;10.27;;;6.20;;
52047;SDS011;46904;49.438;8.752;2023-02-12T19:17:16;7.93;;;5.00;;
52047;SDS011;46904;49.438;8.752;2023-02-12T19:19:42;8.32;;;6.10;;
52047;SDS011;46904;49.438;8.752;2023-02-12T19:22:07;9.57;;;5.47;;
52047;SDS011;46904;49.438;8.752;2023-02-12T19:24:33;6.53;;;4.63;;
52047;SDS011;46904;49.438;8.752;2023-02-12T19:26:58;8.35;;;5.45;;
52047;SDS011;46904;49.438;8.752;2023-02-12T19:29:24;8.68;;;5.30;;
52047;SDS011;46904;49.438;8.752;2023-02-12T19:31:50;7.90;;;6.53;;
52047;SDS011;46904;49.438;8.752;2023-02-12T19:34:16;8.30;;;5.88;;
52047;SDS011;46904;49.438;8.752;2023-02-12T19:36:42;9.15;;;5.68;;
52047;SDS011;46904;49.438;8.752;2023-02-12T19:39:08;8.40;;;5.13;;
52047;SDS011;46904;49.438;8.752;2023-02-12T19:41:34;8.38;;;5.93;;
52047;SDS011;46904;49.438;8.752;2023-02-12T19:44:00;7.00;;;5.30;;
52047;SDS011;46904;49.438;8.752;2023-02-12T19:46:27;6.68;;;5.20;;
52047;SDS011;46904;49.438;8.752;2023-02-12T19:48:54;8.82;;;6.07;;
52047;SDS011;46904;49.438;8.752;2023-02-12T19:51:20;9.15;;;6.47;;
52047;SDS011;46904;49.438;8.752;2023-02-12T19:53:46;10.85;;;7.75;;
52047;SDS011;46904;49.438;8.752;2023-02-12T19:56:12;10.75;;;7.05;;
52047;SDS011;46904;49.438;8.752;2023-02-12T19:58:38;9.00;;;6.40;;
52047;SDS011;46904;49.438;8.752;2023-02-12T20:01:08;9.98;;;7.18;;
52047;SDS011;46904;49.438;8.752;2023-02-12T20:03:33;11.63;;;6.93;;
52047;SDS011;46904;49.438;8.752;2023-02-12T20:06:04;11.07;;;7.82;;
52047;SDS011;46904;49.438;8.752;2023-02-12T20:08:37;7.88;;;5.72;;
52047;SDS011;46904;49.438;8.752;2023-02-12T20:14:17;9.70;;;6.70;;
52047;SDS011;46904;49.438;8.752;2023-02-12T20:16:43;7.47;;;5.27;;
52047;SDS011;46904;49.438;8.752;2023-02-12T20:19:10;9.32;;;6.07;;
52047;SDS011;46904;49.438;8.752;2023-02-12T20:21:37;7.97;;;6.07;;
52047;SDS011;46904;49.438;8.752;2023-02-12T20:24:03;10.38;;;6.53;;
52047;SDS011;46904;49.438;8.752;2023-02-12T20:26:29;10.40;;;6.22;;
52047;SDS011;46904;49.438;8.752;2023-02-12T20:28:55;10.73;;;6.50;;
52047;SDS011;46904;49.438;8.752;2023-02-12T20:31:22;10.45;;;6.03;;
52047;SDS011;46904;49.438;8.752;2023-02-12T20:33:51;8.50;;;5.55;;
52047;SDS011;46904;49.438;8.752;2023-02-12T20:36:17;8.30;;;5.30;;
52047;SDS011;46904;49.438;8.752;2023-02-12T20:38:43;10.93;;;5.95;;
52047;SDS011;46904;49.438;8.752;2023-02-12T20:41:09;8.25;;;5.15;;
52047;SDS011;46904;49.438;8.752;2023-02-12T20:43:35;9.23;;;5.13;;
52047;SDS011;46904;49.438;8.752;2023-02-12T20:46:04;9.55;;;5.20;;
52047;SDS011;46904;49.438;8.752;2023-02-12T20:48:30;11.73;;;6.20;;
52047;SDS011;46904;49.438;8.752;2023-02-12T20:51:01;9.02;;;5.90;;
52047;SDS011;46904;49.438;8.752;2023-02-12T20:53:27;9.60;;;5.90;;
52047;SDS011;46904;49.438;8.752;2023-02-12T20:55:53;10.27;;;6.03;;
52047;SDS011;46904;49.438;8.752;2023-02-12T20:58:18;9.10;;;6.00;;
52047;SDS011;46904;49.438;8.752;2023-02-12T21:00:44;8.60;;;5.38;;
52047;SDS011;46904;49.438;8.752;2023-02-12T21:03:09;9.18;;;5.90;;
52047;SDS011;46904;49.438;8.752;2023-02-12T21:05:36;9.77;;;5.72;;
52047;SDS011;46904;49.438;8.752;2023-02-12T21:08:01;8.55;;;5.55;;
52047;SDS011;46904;49.438;8.752;2023-02-12T21:10:27;9.35;;;5.85;;
52047;SDS011;46904;49.438;8.752;2023-02-12T21:12:52;10.20;;;6.22;;
52047;SDS011;46904;49.438;8.752;2023-02-12T21:15:18;12.82;;;6.78;;
52047;SDS011;46904;49.438;8.752;2023-02-12T21:17:43;8.85;;;6.07;;
52047;SDS011;46904;49.438;8.752;2023-02-12T21:20:09;10.07;;;6.25;;
52047;SDS011;46904;49.438;8.752;2023-02-12T21:22:36;9.45;;;5.82;;
52047;SDS011;46904;49.438;8.752;2023-02-12T21:27:33;10.48;;;6.28;;
52047;SDS011;46904;49.438;8.752;2023-02-12T21:29:59;9.32;;;6.65;;
52047;SDS011;46904;49.438;8.752;2023-02-12T21:32:24;9.98;;;6.00;;
52047;SDS011;46904;49.438;8.752;2023-02-12T21:34:50;8.40;;;5.93;;
52047;SDS011;46904;49.438;8.752;2023-02-12T21:37:15;8.30;;;5.57;;
52047;SDS011;46904;49.438;8.752;2023-02-12T21:39:41;8.48;;;5.53;;
52047;SDS011;46904;49.438;8.752;2023-02-12T21:42:06;10.88;;;5.07;;
52047;SDS011;46904;49.438;8.752;2023-02-12T21:44:32;8.43;;;5.32;;
52047;SDS011;46904;49.438;8.752;2023-02-12T21:46:58;10.20;;;5.88;;